Time;durP1;ratioP1;P1;durP2;ratioP2;P2;SDS_P1;SDS_P2;PMS_P1;PMS_P2;Temp;Humidity;BMP_temperature;BMP_pressure;BME280_temperature;BME280_humidity;BME280_pressure;Samples;Min_cycle;Max_cycle;Signal;HPM_P1;HPM_P2
2022/05/15 00:01:29;;;;;;;7.10;1.77;;;18.40;51.60;;;;;;5112813;28;20082;-72
2022/05/15 00:03:55;;;;;;;5.70;1.55;;;18.40;51.60;;;;;;5112521;28;20078;-71
2022/05/15 00:06:21;;;;;;;4.07;1.73;;;18.40;51.60;;;;;;5112527;28;20032;-71
2022/05/15 00:08:46;;;;;;;5.40;1.42;;;18.40;51.60;;;;;;5111737;28;20547;-66
2022/05/15 00:11:17;;;;;;;4.18;1.25;;;18.40;51.60;;;;;;5112873;28;20039;-72
2022/05/15 00:13:44;;;;;;;4.72;1.50;;;18.40;51.60;;;;;;5112697;28;20047;-73
2022/05/15 00:16:09;;;;;;;3.58;1.23;;;18.40;51.60;;;;;;5113817;28;20088;-66
2022/05/15 00:18:38;;;;;;;4.60;1.60;;;18.30;51.60;;;;;;5112564;28;20447;-67
2022/05/15 00:21:04;;;;;;;3.45;1.15;;;18.30;51.60;;;;;;5112636;28;20048;-71
2022/05/15 00:23:30;;;;;;;4.53;1.85;;;18.30;51.60;;;;;;5112574;28;20387;-72
2022/05/15 00:25:56;;;;;;;3.58;1.50;;;18.30;51.60;;;;;;5112240;28;20036;-72
2022/05/15 00:28:21;;;;;;;3.25;1.25;;;18.30;51.60;;;;;;5112283;28;20097;-66
2022/05/15 00:30:48;;;;;;;5.40;1.45;;;18.30;51.60;;;;;;5113449;28;20031;-72
2022/05/15 00:33:14;;;;;;;5.93;1.30;;;18.30;51.60;;;;;;5113384;28;20508;-72
2022/05/15 00:35:40;;;;;;;5.20;1.80;;;18.30;51.60;;;;;;5112305;28;20483;-71
2022/05/15 00:38:09;;;;;;;5.75;1.38;;;18.20;51.60;;;;;;5112578;28;20039;-66
2022/05/15 00:40:38;;;;;;;4.75;1.63;;;18.30;51.60;;;;;;5112227;28;20118;-73
2022/05/15 00:43:08;;;;;;;4.25;1.55;;;18.20;51.60;;;;;;5112252;28;20031;-72
2022/05/15 00:45:35;;;;;;;5.23;1.10;;;18.20;51.60;;;;;;5111493;28;20135;-71
2022/05/15 00:48:00;;;;;;;7.05;1.27;;;18.20;51.50;;;;;;5113060;28;20044;-71
2022/05/15 00:50:30;;;;;;;5.60;1.55;;;18.20;51.50;;;;;;5111982;28;20044;-73
2022/05/15 00:53:00;;;;;;;4.68;1.42;;;18.20;51.60;;;;;;5113279;28;20085;-71
2022/05/15 00:55:35;;;;;;;4.50;1.47;;;18.20;51.60;;;;;;5113186;28;20086;-66
2022/05/15 00:58:06;;;;;;;4.82;1.35;;;18.20;51.60;;;;;;5112971;28;20043;-72
2022/05/15 01:00:34;;;;;;;3.72;1.58;;;18.20;51.70;;;;;;5111744;28;20039;-71
2022/05/15 01:03:11;;;;;;;3.17;1.17;;;18.20;51.60;;;;;;5111913;28;20058;-67
2022/05/15 01:05:43;;;;;;;4.72;1.25;;;18.10;51.60;;;;;;5112800;28;20124;-71
2022/05/15 01:08:10;;;;;;;5.57;1.50;;;18.10;51.60;;;;;;5111707;28;20051;-67
2022/05/15 01:10:39;;;;;;;3.53;1.58;;;18.10;51.70;;;;;;5111432;28;20040;-71
2022/05/15 01:13:05;;;;;;;4.68;1.40;;;18.10;51.70;;;;;;5112758;28;20090;-72
2022/05/15 01:15:32;;;;;;;3.92;1.17;;;18.10;51.70;;;;;;5111424;28;20490;-68
2022/05/15 01:17:58;;;;;;;5.15;1.48;;;18.10;51.70;;;;;;5111233;28;20047;-71
2022/05/15 01:20:29;;;;;;;5.47;1.55;;;18.10;51.70;;;;;;5111243;28;20096;-72
2022/05/15 01:22:55;;;;;;;4.22;1.40;;;18.10;51.70;;;;;;5111582;28;20043;-69
2022/05/15 01:25:23;;;;;;;5.60;1.60;;;18.10;51.70;;;;;;5112432;28;20376;-73
2022/05/15 01:27:59;;;;;;;4.43;1.27;;;18.10;51.80;;;;;;5111106;28;20054;-71
2022/05/15 01:30:25;;;;;;;4.82;1.63;;;18.10;51.70;;;;;;5111212;28;20044;-74
2022/05/15 01:32:51;;;;;;;4.22;1.35;;;18.10;51.70;;;;;;5111063;28;20481;-73
2022/05/15 01:35:16;;;;;;;4.70;1.15;;;18.00;51.70;;;;;;5112428;28;20058;-71
2022/05/15 01:37:42;;;;;;;4.28;2.05;;;18.00;51.60;;;;;;5111026;28;20040;-71
2022/05/15 01:40:12;;;;;;;5.53;1.30;;;18.00;51.60;;;;;;5111109;28;20039;-71
2022/05/15 01:42:38;;;;;;;4.43;1.30;;;18.00;51.70;;;;;;5112214;28;20039;-73
2022/05/15 01:45:05;;;;;;;4.60;1.23;;;18.00;51.60;;;;;;5110727;28;20407;-67
2022/05/15 01:47:33;;;;;;;5.63;1.38;;;18.00;51.60;;;;;;5111160;28;20051;-72
2022/05/15 01:50:00;;;;;;;3.50;1.10;;;18.00;51.60;;;;;;5112359;28;20040;-72
2022/05/15 01:52:32;;;;;;;4.18;1.63;;;18.00;51.60;;;;;;5111155;28;20053;-73
2022/05/15 01:55:00;;;;;;;5.63;1.67;;;17.90;51.60;;;;;;5110985;28;20050;-71
2022/05/15 01:57:26;;;;;;;3.65;1.40;;;17.90;51.60;;;;;;5110989;28;20164;-67
2022/05/15 01:59:52;;;;;;;5.72;1.88;;;17.90;51.60;;;;;;5110984;28;20088;-72
2022/05/15 02:02:18;;;;;;;5.35;1.45;;;17.90;51.60;;;;;;5110893;28;20050;-72
2022/05/15 02:04:44;;;;;;;4.63;1.70;;;17.90;51.60;;;;;;5110935;28;20046;-71
2022/05/15 02:07:10;;;;;;;6.43;1.67;;;17.90;51.60;;;;;;5110761;28;20043;-71
2022/05/15 02:09:38;;;;;;;2.17;0.98;;;17.90;51.60;;;;;;5111069;28;20118;-71
2022/05/15 02:12:04;;;;;;;4.25;1.65;;;17.90;51.60;;;;;;5110984;28;20043;-71
2022/05/15 02:14:30;;;;;;;5.13;1.30;;;17.90;51.70;;;;;;5110756;28;20130;-71
2022/05/15 02:16:55;;;;;;;5.90;1.77;;;17.90;51.70;;;;;;5112071;28;20123;-68
2022/05/15 02:19:21;;;;;;;4.00;1.15;;;17.90;51.70;;;;;;5110772;28;20043;-71
2022/05/15 02:21:49;;;;;;;5.20;1.30;;;17.90;51.70;;;;;;5110704;28;20054;-68
2022/05/15 02:24:15;;;;;;;3.97;1.23;;;17.90;51.70;;;;;;5111892;28;20035;-73
2022/05/15 02:26:41;;;;;;;4.15;1.00;;;17.80;51.60;;;;;;5110583;28;20031;-66
2022/05/15 02:29:07;;;;;;;4.88;1.40;;;17.80;52.40;;;;;;5110613;28;20061;-71
2022/05/15 02:31:33;;;;;;;2.88;1.27;;;17.80;51.60;;;;;;5113363;28;20040;-67
2022/05/15 02:34:02;;;;;;;5.47;1.08;;;17.80;51.60;;;;;;5115632;28;20048;-71
2022/05/15 02:36:29;;;;;;;5.32;1.42;;;17.80;51.60;;;;;;5114682;28;20494;-73
2022/05/15 02:38:54;;;;;;;4.05;1.15;;;17.80;51.60;;;;;;5114619;28;20043;-71
2022/05/15 02:41:20;;;;;;;2.78;0.80;;;17.70;51.50;;;;;;5114547;28;20514;-71
2022/05/15 02:43:46;;;;;;;4.25;1.73;;;17.80;51.60;;;;;;5114739;27;20459;-71
2022/05/15 02:46:12;;;;;;;2.95;1.30;;;17.80;51.60;;;;;;5117620;27;20118;-71
2022/05/15 02:51:23;;;;;;;3.55;1.30;;;17.80;51.60;;;;;;5117354;27;20121;-71
2022/05/15 02:53:49;;;;;;;4.07;1.10;;;17.70;51.60;;;;;;5117672;27;20070;-70
2022/05/15 02:56:19;;;;;;;6.40;1.70;;;17.70;51.60;;;;;;5135834;27;20039;-71
2022/05/15 02:58:45;;;;;;;3.50;1.50;;;17.70;51.60;;;;;;5135736;27;20447;-71
2022/05/15 03:01:11;;;;;;;5.00;1.25;;;17.70;51.60;;;;;;5117385;27;20074;-71
2022/05/15 03:03:37;;;;;;;4.72;1.25;;;17.70;51.60;;;;;;5135748;27;20047;-66
2022/05/15 03:06:05;;;;;;;4.80;1.30;;;17.70;51.50;;;;;;5117218;27;20496;-71
2022/05/15 03:08:33;;;;;;;3.40;1.13;;;17.70;51.50;;;;;;5117199;27;20039;-71
2022/05/15 03:10:59;;;;;;;4.88;1.13;;;17.60;51.50;;;;;;5135770;27;20043;-73
2022/05/15 03:13:24;;;;;;;4.28;1.05;;;17.60;51.40;;;;;;5117385;27;20027;-73
2022/05/15 03:15:50;;;;;;;3.83;1.25;;;17.60;51.50;;;;;;5117052;27;20035;-71
2022/05/15 03:18:16;;;;;;;3.63;0.75;;;17.60;51.50;;;;;;5117092;27;20031;-71
2022/05/15 03:20:41;;;;;;;4.10;1.67;;;17.60;51.50;;;;;;5116848;27;20118;-71
2022/05/15 03:23:07;;;;;;;2.58;0.95;;;17.60;51.50;;;;;;5117000;27;20099;-72
2022/05/15 03:25:34;;;;;;;2.95;1.00;;;17.60;51.50;;;;;;5135089;27;20093;-67
2022/05/15 03:28:00;;;;;;;4.10;1.08;;;17.60;51.50;;;;;;5135315;27;20398;-72
2022/05/15 03:30:26;;;;;;;3.40;1.25;;;17.60;51.50;;;;;;5117077;27;20121;-70
2022/05/15 03:32:52;;;;;;;1.95;0.77;;;17.50;51.40;;;;;;5117070;27;20327;-71
2022/05/15 03:35:18;;;;;;;3.30;1.02;;;17.50;51.40;;;;;;5117030;27;20386;-71
2022/05/15 03:37:43;;;;;;;3.78;1.02;;;17.50;51.40;;;;;;5116995;27;20051;-71
2022/05/15 03:40:11;;;;;;;3.80;1.10;;;17.50;51.40;;;;;;5116742;27;20047;-73
2022/05/15 03:42:37;;;;;;;3.47;1.35;;;17.50;51.40;;;;;;5117655;27;20053;-71
2022/05/15 03:45:04;;;;;;;2.85;1.00;;;17.50;51.40;;;;;;5111274;28;20056;-71
2022/05/15 03:47:30;;;;;;;4.57;1.10;;;17.50;51.40;;;;;;5113224;28;20510;-73
2022/05/15 03:50:01;;;;;;;2.72;0.90;;;17.50;51.50;;;;;;5113053;28;20039;-70
2022/05/15 03:52:26;;;;;;;4.28;1.35;;;17.40;51.40;;;;;;5112907;28;20036;-70
2022/05/15 03:54:52;;;;;;;4.00;1.00;;;17.50;51.40;;;;;;5114173;28;20038;-71
2022/05/15 03:57:19;;;;;;;5.35;1.52;;;17.50;51.50;;;;;;5113088;28;20035;-71
2022/05/15 03:59:45;;;;;;;2.45;1.08;;;17.40;51.40;;;;;;5113117;28;20085;-73
2022/05/15 04:02:10;;;;;;;3.10;0.93;;;17.40;51.40;;;;;;5114006;28;20453;-71
2022/05/15 04:04:36;;;;;;;4.07;1.38;;;17.40;51.40;;;;;;5112892;28;20476;-71
2022/05/15 04:07:02;;;;;;;3.70;1.85;;;17.40;51.40;;;;;;5112958;28;20112;-71
2022/05/15 04:09:30;;;;;;;4.32;1.00;;;17.40;51.40;;;;;;5112477;28;20509;-71
2022/05/15 04:11:56;;;;;;;4.88;1.20;;;17.40;51.40;;;;;;5112597;28;20044;-71
2022/05/15 04:14:22;;;;;;;5.05;0.90;;;17.40;51.40;;;;;;5112540;28;20101;-71
2022/05/15 04:16:48;;;;;;;4.55;0.90;;;17.40;51.40;;;;;;5112452;28;20055;-73
2022/05/15 04:19:14;;;;;;;3.80;0.90;;;17.40;51.40;;;;;;5112518;28;20058;-71
2022/05/15 04:21:42;;;;;;;5.82;1.75;;;17.40;51.40;;;;;;5112347;28;20517;-69
2022/05/15 04:24:14;;;;;;;3.25;1.25;;;17.40;51.40;;;;;;5112425;28;20122;-73
2022/05/15 04:26:42;;;;;;;2.17;0.88;;;17.40;51.40;;;;;;5112498;28;20047;-71
2022/05/15 04:29:08;;;;;;;3.30;0.90;;;17.40;51.40;;;;;;5112328;28;20043;-71
2022/05/15 04:31:34;;;;;;;4.28;1.33;;;17.40;51.40;;;;;;5112471;28;20046;-71
2022/05/15 04:34:01;;;;;;;3.03;1.02;;;17.40;51.40;;;;;;5112085;28;20509;-71
2022/05/15 04:36:26;;;;;;;3.67;1.20;;;17.40;51.40;;;;;;5112117;28;20051;-71
2022/05/15 04:38:53;;;;;;;4.50;1.38;;;17.40;51.40;;;;;;5111974;28;20066;-71
2022/05/15 04:41:19;;;;;;;3.28;1.58;;;17.40;51.40;;;;;;5112370;28;20062;-73
2022/05/15 04:43:44;;;;;;;3.97;1.15;;;17.40;51.40;;;;;;5112118;28;20403;-73
2022/05/15 04:46:10;;;;;;;4.57;2.08;;;17.40;51.40;;;;;;5096271;28;20403;-71
2022/05/15 04:48:37;;;;;;;3.42;1.00;;;17.40;51.40;;;;;;5094888;28;20059;-66
2022/05/15 04:51:04;;;;;;;4.75;1.15;;;17.40;51.40;;;;;;5113126;28;20386;-66
2022/05/15 04:53:32;;;;;;;5.32;1.30;;;17.40;51.40;;;;;;5094391;28;20108;-66
2022/05/15 04:56:00;;;;;;;4.00;1.30;;;17.40;51.50;;;;;;5094822;28;20074;-68
2022/05/15 04:58:25;;;;;;;3.30;1.08;;;17.40;51.50;;;;;;5094866;28;20047;-71
2022/05/15 05:00:51;;;;;;;3.97;1.52;;;17.40;51.50;;;;;;5094679;28;20403;-71
2022/05/15 05:03:17;;;;;;;3.78;1.35;;;17.30;51.50;;;;;;5094959;28;20123;-71
2022/05/15 05:05:43;;;;;;;3.70;1.10;;;17.40;51.50;;;;;;5094757;28;20495;-71
2022/05/15 05:08:10;;;;;;;4.70;1.58;;;17.40;51.50;;;;;;5094825;28;20519;-70
2022/05/15 05:10:36;;;;;;;3.95;1.55;;;17.40;51.50;;;;;;5094422;28;20044;-71
2022/05/15 05:13:03;;;;;;;3.95;1.55;;;17.40;51.50;;;;;;5112730;28;20470;-66
2022/05/15 05:15:29;;;;;;;5.30;1.98;;;17.40;51.60;;;;;;5094364;28;20051;-71
2022/05/15 05:17:56;;;;;;;4.10;1.45;;;17.40;52.40;;;;;;5112598;28;20158;-71
2022/05/15 05:20:22;;;;;;;4.05;1.70;;;17.40;51.70;;;;;;5094382;28;20413;-71
2022/05/15 05:22:47;;;;;;;4.03;1.52;;;17.40;51.70;;;;;;5094332;28;20089;-71
2022/05/15 05:25:13;;;;;;;5.13;1.75;;;17.40;51.70;;;;;;5094164;28;20043;-71
2022/05/15 05:27:41;;;;;;;5.10;1.77;;;17.40;51.90;;;;;;5112532;28;20073;-71
2022/05/15 05:30:14;;;;;;;5.45;1.85;;;17.40;51.90;;;;;;5093947;28;20509;-72
2022/05/15 05:32:39;;;;;;;6.13;1.38;;;17.40;51.90;;;;;;5112532;28;20032;-71
2022/05/15 05:35:08;;;;;;;7.05;1.50;;;17.40;51.90;;;;;;5112402;28;20497;-71
2022/05/15 05:37:34;;;;;;;7.47;1.98;;;17.30;51.90;;;;;;5094116;28;20043;-71
2022/05/15 05:40:00;;;;;;;6.32;1.88;;;17.30;51.90;;;;;;5094029;28;20040;-71
2022/05/15 05:42:25;;;;;;;5.22;1.85;;;17.40;52.00;;;;;;5094245;28;20097;-71
2022/05/15 05:44:51;;;;;;;3.58;1.42;;;17.40;52.00;;;;;;5101327;28;20155;-71
2022/05/15 05:47:24;;;;;;;5.63;1.85;;;17.40;52.00;;;;;;5114711;28;20395;-71
2022/05/15 05:49:50;;;;;;;7.30;2.15;;;17.40;52.10;;;;;;5114303;28;20491;-70
2022/05/15 05:52:16;;;;;;;6.43;1.65;;;17.40;52.00;;;;;;5114913;28;20031;-71
2022/05/15 05:54:42;;;;;;;5.75;1.45;;;17.40;52.10;;;;;;5114483;28;20039;-71
2022/05/15 05:57:08;;;;;;;6.45;2.00;;;17.40;52.10;;;;;;5097311;28;20098;-71
2022/05/15 05:59:33;;;;;;;7.32;1.75;;;17.40;52.10;;;;;;5114428;28;20078;-71
2022/05/15 06:01:59;;;;;;;7.43;1.88;;;17.40;52.10;;;;;;5114743;28;20051;-71
2022/05/15 06:04:40;;;;;;;5.10;1.80;;;17.50;52.20;;;;;;5114081;27;20036;-71
2022/05/15 06:07:09;;;;;;;4.80;1.95;;;17.40;52.20;;;;;;5117639;27;20047;-73
2022/05/15 06:09:37;;;;;;;6.32;2.05;;;17.50;52.30;;;;;;5118662;27;20081;-71
2022/05/15 06:12:05;;;;;;;5.15;1.77;;;17.50;52.30;;;;;;5118305;27;20047;-66
2022/05/15 06:14:30;;;;;;;4.47;1.67;;;17.50;52.30;;;;;;5136657;27;20053;-70
2022/05/15 06:16:57;;;;;;;5.55;1.90;;;17.50;52.40;;;;;;5136706;27;20118;-71
2022/05/15 06:19:23;;;;;;;4.55;1.40;;;17.50;52.30;;;;;;5118808;27;20038;-70
2022/05/15 06:21:48;;;;;;;3.83;1.75;;;17.50;52.40;;;;;;5118211;27;20588;-66
2022/05/15 06:24:14;;;;;;;5.20;1.80;;;17.50;52.40;;;;;;5136397;27;20042;-71
2022/05/15 06:26:40;;;;;;;5.88;1.50;;;17.50;52.40;;;;;;5136393;27;20035;-71
2022/05/15 06:29:05;;;;;;;7.50;1.95;;;17.50;52.40;;;;;;5117869;27;20035;-71
2022/05/15 06:31:31;;;;;;;5.70;1.70;;;17.50;52.50;;;;;;5117850;27;20043;-72
2022/05/15 06:33:57;;;;;;;6.80;1.95;;;17.50;52.50;;;;;;5117958;27;20039;-70
2022/05/15 06:36:31;;;;;;;5.50;1.67;;;17.60;52.50;;;;;;5118058;27;20038;-72
2022/05/15 06:38:57;;;;;;;4.22;1.38;;;17.60;52.50;;;;;;5118334;27;20047;-66
2022/05/15 06:41:23;;;;;;;5.30;1.33;;;17.60;52.50;;;;;;5118223;27;20046;-73
2022/05/15 06:43:49;;;;;;;4.78;1.77;;;17.60;52.50;;;;;;5136422;27;20038;-71
2022/05/15 06:46:14;;;;;;;5.97;1.75;;;17.60;52.40;;;;;;5117299;27;20059;-71
2022/05/15 06:48:40;;;;;;;5.70;1.40;;;17.70;52.50;;;;;;5117694;27;20050;-71
2022/05/15 06:51:06;;;;;;;7.43;2.33;;;17.70;52.60;;;;;;5117700;27;20390;-72
2022/05/15 06:53:32;;;;;;;4.28;1.38;;;17.70;52.50;;;;;;5117548;27;20038;-71
2022/05/15 06:58:44;;;;;;;5.82;1.73;;;17.70;52.40;;;;;;5117300;27;20046;-71
2022/05/15 07:01:10;;;;;;;4.97;1.70;;;17.70;52.40;;;;;;5135901;27;20042;-71
2022/05/15 07:03:36;;;;;;;3.60;1.13;;;17.70;52.40;;;;;;5117370;27;20039;-66
2022/05/15 07:06:02;;;;;;;6.00;1.60;;;17.80;52.40;;;;;;5117191;27;20035;-71
2022/05/15 07:08:27;;;;;;;4.30;1.45;;;17.80;52.40;;;;;;5117126;27;20039;-71
2022/05/15 07:10:53;;;;;;;5.00;1.58;;;17.80;52.40;;;;;;5117443;27;20042;-73
2022/05/15 07:13:19;;;;;;;5.85;1.48;;;17.80;52.40;;;;;;5116970;27;20043;-71
2022/05/15 07:15:45;;;;;;;3.05;1.70;;;17.80;52.40;;;;;;5117045;27;20035;-70
2022/05/15 07:18:10;;;;;;;5.97;1.65;;;17.80;52.40;;;;;;5116930;27;20035;-71
2022/05/15 07:20:36;;;;;;;4.65;1.88;;;17.80;52.50;;;;;;5117231;27;20035;-71
2022/05/15 07:23:02;;;;;;;3.28;1.35;;;17.90;52.60;;;;;;5116964;27;20043;-71
2022/05/15 07:25:28;;;;;;;3.70;1.50;;;17.90;52.60;;;;;;5116834;27;20058;-72
2022/05/15 07:27:55;;;;;;;4.07;1.60;;;17.90;52.50;;;;;;5116868;27;20031;-71
2022/05/15 07:30:21;;;;;;;4.80;1.83;;;17.90;52.50;;;;;;5117063;27;20047;-71
2022/05/15 07:32:47;;;;;;;4.45;1.42;;;17.90;52.50;;;;;;5116750;27;20047;-72
2022/05/15 07:35:13;;;;;;;4.03;0.93;;;18.00;52.40;;;;;;5117017;27;20039;-67
2022/05/15 07:37:39;;;;;;;5.25;1.25;;;18.00;52.40;;;;;;5135011;27;20216;-73
2022/05/15 07:40:05;;;;;;;5.68;1.58;;;18.00;52.40;;;;;;5116898;27;20039;-71
2022/05/15 07:42:31;;;;;;;3.78;1.33;;;18.00;52.30;;;;;;5116739;27;20043;-71
2022/05/15 07:44:59;;;;;;;5.15;1.10;;;18.10;52.30;;;;;;5116178;27;20407;-71
2022/05/15 07:47:25;;;;;;;4.38;1.38;;;18.10;52.30;;;;;;5116708;27;20046;-72
2022/05/15 07:49:51;;;;;;;6.28;1.60;;;18.10;52.40;;;;;;5116582;27;20035;-72
2022/05/15 07:52:18;;;;;;;5.63;1.50;;;18.10;52.30;;;;;;5116615;27;20390;-71
2022/05/15 07:54:43;;;;;;;4.70;1.52;;;18.10;52.30;;;;;;5116275;27;20047;-71
2022/05/15 07:57:09;;;;;;;3.83;1.23;;;18.10;52.30;;;;;;5116215;27;20122;-71
2022/05/15 07:59:35;;;;;;;5.82;1.67;;;18.20;52.20;;;;;;5116346;27;20039;-73
2022/05/15 08:02:06;;;;;;;4.18;1.27;;;18.20;52.20;;;;;;5116161;27;20127;-71
2022/05/15 08:08:00;;;;;;;4.18;1.20;;;18.20;52.10;;;;;;5134439;27;20107;-72
2022/05/15 08:10:04;;;;;;;4.18;1.23;;;18.20;52.00;;;;;;5116074;27;20432;-71
2022/05/15 08:12:30;;;;;;;4.57;1.50;;;18.30;52.00;;;;;;5116166;27;20081;-71
2022/05/15 08:14:56;;;;;;;4.47;1.02;;;18.30;52.00;;;;;;5115955;27;20066;-71
2022/05/15 08:17:21;;;;;;;2.95;0.98;;;18.40;52.00;;;;;;5116065;27;20097;-69
2022/05/15 08:25:20;;;;;;;5.10;0.85;;;18.50;51.90;;;;;;5133886;27;20058;-66
2022/05/15 08:27:45;;;;;;;3.33;1.15;;;18.60;51.80;;;;;;5114741;28;20043;-68
2022/05/15 08:30:12;;;;;;;4.95;1.33;;;18.60;51.70;;;;;;5115392;27;20058;-72
2022/05/15 08:32:41;;;;;;;7.38;1.88;;;18.60;51.80;;;;;;5133909;27;20046;-73
2022/05/15 08:35:07;;;;;;;6.00;1.27;;;18.80;51.90;;;;;;5115521;27;20046;-71
2022/05/15 08:37:32;;;;;;;4.38;1.20;;;18.80;52.00;;;;;;5115453;27;20043;-71
2022/05/15 08:39:58;;;;;;;6.20;1.73;;;18.70;51.80;;;;;;5115588;27;20046;-70
2022/05/15 08:42:44;;;;;;;5.00;1.30;;;18.80;51.70;;;;;;5115261;27;20050;-72
2022/05/15 08:45:15;;;;;;;4.50;1.38;;;18.90;51.50;;;;;;5133378;27;20043;-71
2022/05/15 08:47:45;;;;;;;3.65;1.52;;;18.90;51.40;;;;;;5133802;27;20406;-72
2022/05/15 08:50:18;;;;;;;4.97;1.17;;;18.90;51.20;;;;;;5115332;27;20039;-72
2022/05/15 08:55:40;;;;;;;7.55;1.50;;;19.00;50.80;;;;;;5130387;27;20440;-72
2022/05/15 08:58:11;;;;;;;6.80;1.73;;;19.60;49.90;;;;;;5128976;28;20553;-71
2022/05/15 09:00:44;;;;;;;6.40;1.60;;;19.80;49.20;;;;;;5129140;28;20067;-72
2022/05/15 09:11:55;;;;;;;4.88;1.42;;;20.10;48.60;;;;;;5152695;27;1168355;-72
2022/05/15 09:15:01;;;;;;;3.08;1.48;;;20.90;46.70;;;;;;5153374;27;20053;-71
2022/05/15 09:23:26;;;;;;;5.63;1.27;;;21.10;45.70;;;;;;5130225;27;20350;-72
2022/05/15 09:28:45;;;;;;;4.50;1.13;;;21.20;45.50;;;;;;5130291;27;20354;-73
2022/05/15 09:34:31;;;;;;;5.22;1.40;;;21.30;45.50;;;;;;5089452;27;20404;-72
2022/05/15 09:39:49;;;;;;;4.43;1.40;;;21.30;45.20;;;;;;5087985;28;20102;-70
2022/05/15 09:44:53;;;;;;;4.28;1.35;;;21.30;45.20;;;;;;5089459;27;20360;-71
2022/05/15 09:47:37;;;;;;;6.53;2.03;;;21.30;45.20;;;;;;5088228;28;20110;-73
2022/05/15 09:50:05;;;;;;;5.25;2.08;;;21.30;45.20;;;;;;5089555;28;20036;-71
2022/05/15 09:58:00;;;;;;;4.80;1.23;;;21.30;45.30;;;;;;5130173;27;20405;-71
2022/05/15 10:00:30;;;;;;;4.50;1.15;;;21.20;45.30;;;;;;5163588;27;20043;-71
2022/05/15 10:03:03;;;;;;;6.43;2.35;;;21.20;45.50;;;;;;5129186;28;20046;-71
2022/05/15 10:05:32;;;;;;;5.72;1.40;;;21.20;45.40;;;;;;5130248;27;20035;-67
2022/05/15 10:10:56;;;;;;;6.40;1.38;;;21.20;45.50;;;;;;5130244;27;20428;-68
2022/05/15 10:13:45;;;;;;;3.53;1.15;;;21.10;45.60;;;;;;5146454;27;20049;-72
2022/05/15 10:19:24;;;;;;;5.25;1.40;;;21.10;45.80;;;;;;5130233;27;20399;-72
2022/05/15 10:22:04;;;;;;;5.22;1.17;;;21.00;45.90;;;;;;5129025;27;20043;-72
2022/05/15 10:24:35;;;;;;;6.23;2.40;;;21.00;46.00;;;;;;5129151;28;20050;-73
2022/05/15 10:27:10;;;;;;;5.32;1.20;;;21.00;46.00;;;;;;5129121;28;20318;-72
2022/05/15 10:32:23;;;;;;;6.78;2.33;;;21.00;46.10;;;;;;5130280;27;20908;-73
2022/05/15 10:34:49;;;;;;;4.53;2.00;;;21.00;46.20;;;;;;5129298;28;20684;-72
2022/05/15 10:37:48;;;;;;;5.07;1.48;;;20.90;46.20;;;;;;5128883;28;20075;-72
2022/05/15 10:45:50;;;;;;;5.45;1.35;;;20.90;46.30;;;;;;5130221;27;20909;-71
2022/05/15 10:48:55;;;;;;;7.40;1.45;;;20.90;46.50;;;;;;5128987;28;20058;-70
2022/05/15 11:00:15;;;;;;;5.38;1.75;;;20.80;46.70;;;;;;5130605;27;20410;-72
2022/05/15 11:08:58;;;;;;;4.28;1.40;;;20.80;47.00;;;;;;5130332;27;20852;-72
2022/05/15 11:20:06;;;;;;;5.22;1.38;;;20.70;47.10;;;;;;5109669;27;20109;-67
2022/05/15 11:22:41;;;;;;;5.38;1.65;;;20.70;47.20;;;;;;5108750;28;20050;-73
2022/05/15 11:25:28;;;;;;;6.03;1.35;;;20.70;47.20;;;;;;5108375;28;20115;-72
2022/05/15 11:28:02;;;;;;;5.72;1.50;;;20.70;47.20;;;;;;5108398;28;20503;-72
2022/05/15 11:30:34;;;;;;;3.92;1.15;;;20.70;47.20;;;;;;5108533;28;20536;-72
2022/05/15 11:33:03;;;;;;;5.53;1.40;;;20.70;47.20;;;;;;5108610;28;20040;-72
2022/05/15 11:35:33;;;;;;;5.82;1.77;;;20.70;47.30;;;;;;5108166;28;20065;-72
2022/05/15 11:43:35;;;;;;;4.73;1.33;;;20.70;47.30;;;;;;5153007;27;1159893;-72
2022/05/15 11:46:07;;;;;;;4.90;1.55;;;20.80;47.30;;;;;;5153103;27;20830;-72
2022/05/15 11:48:55;;;;;;;5.25;1.92;;;20.80;47.30;;;;;;5171818;27;20405;-74
2022/05/15 11:56:53;;;;;;;8.50;1.98;;;20.80;47.30;;;;;;5129986;27;20361;-73
2022/05/15 11:59:24;;;;;;;6.03;1.92;;;20.80;47.40;;;;;;5128079;28;20075;-72
2022/05/15 12:01:54;;;;;;;8.15;2.15;;;20.70;47.40;;;;;;5128283;28;20061;-72
2022/05/15 12:17:56;;;;;;;5.90;1.77;;;20.70;47.30;;;;;;5089370;27;20179;-72
2022/05/15 12:31:42;;;;;;;6.20;1.40;;;20.80;47.40;;;;;;5157007;27;1160134;-72
2022/05/15 12:34:26;;;;;;;4.55;1.40;;;20.80;47.40;;;;;;5152998;27;20280;-72
2022/05/15 12:37:00;;;;;;;4.50;1.45;;;20.80;47.40;;;;;;5152979;27;20048;-72
2022/05/15 12:39:30;;;;;;;4.97;1.30;;;20.80;47.30;;;;;;5152952;27;20485;-72
2022/05/15 12:42:02;;;;;;;7.28;2.03;;;20.80;47.30;;;;;;5152849;27;20088;-72
2022/05/15 12:44:32;;;;;;;4.50;1.67;;;20.80;47.40;;;;;;5153094;27;20389;-72
2022/05/15 12:47:00;;;;;;;4.07;1.08;;;20.80;47.30;;;;;;5152876;27;20039;-72
2022/05/15 12:52:27;;;;;;;4.30;1.25;;;20.80;47.30;;;;;;5150948;27;20103;-74
2022/05/15 12:54:58;;;;;;;5.55;1.38;;;20.90;47.30;;;;;;5129263;28;20035;-73
2022/05/15 12:57:23;;;;;;;4.97;1.67;;;20.90;47.30;;;;;;5129258;28;20079;-72
2022/05/15 12:59:50;;;;;;;5.28;1.20;;;20.90;47.20;;;;;;5130422;28;20078;-72
2022/05/15 13:05:07;;;;;;;7.43;1.38;;;20.90;47.20;;;;;;5131059;27;20315;-73
2022/05/15 13:07:39;;;;;;;5.32;2.03;;;20.90;47.20;;;;;;5129751;28;20071;-67
2022/05/15 13:10:11;;;;;;;4.22;2.03;;;20.90;47.20;;;;;;5131098;27;20035;-73
2022/05/15 13:12:54;;;;;;;7.00;1.80;;;20.90;47.20;;;;;;5129770;28;20451;-72
2022/05/15 13:15:24;;;;;;;6.65;1.80;;;20.90;47.10;;;;;;5129287;28;20068;-74
2022/05/15 13:17:51;;;;;;;4.90;1.50;;;21.00;47.10;;;;;;5128733;28;20050;-74
2022/05/15 13:20:20;;;;;;;3.65;1.10;;;21.00;47.10;;;;;;5128934;27;20126;-74
2022/05/15 13:22:47;;;;;;;5.17;1.53;;;21.00;47.10;;;;;;5111688;28;20046;-72
2022/05/15 13:25:18;;;;;;;5.95;1.35;;;21.00;47.10;;;;;;5128859;28;20281;-72
2022/05/15 13:27:46;;;;;;;5.60;1.58;;;21.00;47.00;;;;;;5129023;28;20043;-72
2022/05/15 13:30:17;;;;;;;6.05;1.55;;;21.00;47.00;;;;;;5128727;28;20035;-74
2022/05/15 13:32:44;;;;;;;4.40;0.93;;;21.00;47.00;;;;;;5129959;27;20040;-72
2022/05/15 13:35:12;;;;;;;4.10;0.90;;;21.00;46.90;;;;;;5128463;28;20114;-72
2022/05/15 13:37:41;;;;;;;3.88;1.38;;;21.00;46.90;;;;;;5128400;28;20043;-72
2022/05/15 13:43:26;;;;;;;6.13;1.40;;;21.00;46.90;;;;;;5130275;27;20402;-74
2022/05/15 13:45:47;;;;;;;6.18;2.20;;;21.10;46.90;;;;;;5128848;28;20086;-72
2022/05/15 13:48:13;;;;;;;4.82;1.05;;;21.10;46.90;;;;;;5129329;28;20047;-72
2022/05/15 14:04:24;;;;;;;3.65;1.10;;;21.10;46.90;;;;;;5155293;27;1155526;-72
2022/05/15 14:06:50;;;;;;;5.43;1.73;;;21.10;46.60;;;;;;5153385;27;20389;-72
2022/05/15 14:09:16;;;;;;;5.32;1.60;;;21.10;46.60;;;;;;5153374;27;20023;-72
2022/05/15 14:11:59;;;;;;;3.03;1.10;;;21.10;46.60;;;;;;5153218;27;20058;-72
2022/05/15 14:14:54;;;;;;;4.45;1.65;;;21.10;46.60;;;;;;5153189;27;20050;-72
2022/05/15 14:17:28;;;;;;;5.60;1.55;;;21.10;46.60;;;;;;5152921;27;20046;-74
2022/05/15 14:20:08;;;;;;;4.30;1.05;;;21.10;46.70;;;;;;5153164;27;20030;-73
2022/05/15 14:22:35;;;;;;;6.13;1.73;;;21.10;46.70;;;;;;5171392;27;20088;-73
2022/05/15 14:25:01;;;;;;;4.78;1.30;;;21.10;46.60;;;;;;5152758;27;20078;-73
2022/05/15 14:27:27;;;;;;;5.32;1.50;;;21.10;46.60;;;;;;5152663;27;20069;-72
2022/05/15 14:29:52;;;;;;;5.63;1.55;;;21.10;46.60;;;;;;5152739;27;20039;-72
2022/05/15 14:32:22;;;;;;;4.25;1.30;;;21.10;46.60;;;;;;5171194;27;20094;-73
2022/05/15 14:34:49;;;;;;;5.20;1.52;;;21.10;46.50;;;;;;5152912;27;20050;-73
2022/05/15 14:37:15;;;;;;;4.97;1.30;;;21.20;46.50;;;;;;5153018;27;20047;-73
2022/05/15 14:39:40;;;;;;;3.08;1.25;;;21.20;46.40;;;;;;5171091;27;20039;-73
2022/05/15 14:42:06;;;;;;;4.60;1.42;;;21.20;46.30;;;;;;5152533;27;20034;-72
2022/05/15 14:44:32;;;;;;;3.10;0.90;;;21.20;46.20;;;;;;5152359;27;20035;-72
2022/05/15 14:47:03;;;;;;;3.45;0.93;;;21.20;46.20;;;;;;5152368;27;20034;-74
2022/05/15 14:49:31;;;;;;;4.93;1.40;;;21.30;46.30;;;;;;5152427;27;20042;-72
2022/05/15 14:51:57;;;;;;;4.95;1.38;;;21.30;46.30;;;;;;5152142;27;20044;-71
2022/05/15 14:54:24;;;;;;;6.43;1.20;;;21.20;46.20;;;;;;5152400;27;20427;-72
2022/05/15 14:56:53;;;;;;;3.03;1.20;;;21.30;46.20;;;;;;5152097;27;20081;-72
2022/05/15 14:59:21;;;;;;;5.78;1.35;;;21.20;46.20;;;;;;5152250;27;20077;-72
2022/05/15 15:01:47;;;;;;;5.65;1.73;;;21.30;46.20;;;;;;5151937;27;20046;-72
2022/05/15 15:04:14;;;;;;;1.88;0.88;;;21.30;46.20;;;;;;5170382;27;20069;-72
2022/05/15 15:06:40;;;;;;;6.63;1.88;;;21.30;46.20;;;;;;5152207;27;20034;-72
2022/05/15 15:09:10;;;;;;;4.70;1.42;;;21.30;46.20;;;;;;5152058;27;20035;-66
2022/05/15 15:11:45;;;;;;;4.32;1.30;;;21.30;46.10;;;;;;5152105;27;20385;-75
2022/05/15 15:14:11;;;;;;;4.65;1.25;;;21.30;46.10;;;;;;5144634;27;20078;-72
2022/05/15 15:16:41;;;;;;;4.53;1.10;;;21.30;46.10;;;;;;5138032;27;20435;-72